sensor_id;sensor_type;location;lat;lon;timestamp;P1;durP1;ratioP1;P2;durP2;ratioP2
57605;SDS011;43430;48.204;11.556;2023-04-08T00:01:54;17.65;;;9.07;;
57605;SDS011;43430;48.204;11.556;2023-04-08T00:04:19;17.75;;;9.32;;
57605;SDS011;43430;48.204;11.556;2023-04-08T00:06:45;15.23;;;8.55;;
57605;SDS011;43430;48.204;11.556;2023-04-08T00:09:10;13.65;;;8.32;;
57605;SDS011;43430;48.204;11.556;2023-04-08T00:11:36;14.18;;;8.82;;
57605;SDS011;43430;48.204;11.556;2023-04-08T00:14:02;13.20;;;8.05;;
57605;SDS011;43430;48.204;11.556;2023-04-08T00:16:28;15.20;;;8.40;;
57605;SDS011;43430;48.204;11.556;2023-04-08T00:18:54;15.65;;;7.78;;
57605;SDS011;43430;48.204;11.556;2023-04-08T00:21:19;19.80;;;8.40;;
57605;SDS011;43430;48.204;11.556;2023-04-08T00:23:45;12.73;;;7.25;;
57605;SDS011;43430;48.204;11.556;2023-04-08T00:26:11;15.00;;;7.85;;
57605;SDS011;43430;48.204;11.556;2023-04-08T00:28:36;16.45;;;8.15;;
57605;SDS011;43430;48.204;11.556;2023-04-08T00:31:02;14.25;;;7.70;;
57605;SDS011;43430;48.204;11.556;2023-04-08T00:33:28;14.60;;;7.95;;
57605;SDS011;43430;48.204;11.556;2023-04-08T00:35:53;18.00;;;8.75;;
57605;SDS011;43430;48.204;11.556;2023-04-08T00:38:18;15.85;;;7.65;;
57605;SDS011;43430;48.204;11.556;2023-04-08T00:40:44;13.15;;;6.97;;
57605;SDS011;43430;48.204;11.556;2023-04-08T00:43:09;13.00;;;6.63;;
57605;SDS011;43430;48.204;11.556;2023-04-08T00:45:35;10.98;;;7.00;;
57605;SDS011;43430;48.204;11.556;2023-04-08T00:48:01;11.95;;;6.78;;
57605;SDS011;43430;48.204;11.556;2023-04-08T00:50:27;13.73;;;7.50;;
57605;SDS011;43430;48.204;11.556;2023-04-08T00:52:52;13.20;;;6.75;;
57605;SDS011;43430;48.204;11.556;2023-04-08T00:55:18;11.07;;;6.57;;
57605;SDS011;43430;48.204;11.556;2023-04-08T00:57:43;12.65;;;6.50;;
57605;SDS011;43430;48.204;11.556;2023-04-08T01:00:09;12.65;;;5.95;;
57605;SDS011;43430;48.204;11.556;2023-04-08T01:05:12;11.02;;;5.95;;
57605;SDS011;43430;48.204;11.556;2023-04-08T01:07:44;9.57;;;5.05;;
57605;SDS011;43430;48.204;11.556;2023-04-08T01:10:17;11.65;;;5.65;;
57605;SDS011;43430;48.204;11.556;2023-04-08T01:12:51;11.63;;;5.70;;
57605;SDS011;43430;48.204;11.556;2023-04-08T01:15:19;11.20;;;5.05;;
57605;SDS011;43430;48.204;11.556;2023-04-08T01:17:46;11.43;;;5.75;;
57605;SDS011;43430;48.204;11.556;2023-04-08T01:20:14;9.90;;;5.20;;
57605;SDS011;43430;48.204;11.556;2023-04-08T01:25:48;7.70;;;4.35;;
57605;SDS011;43430;48.204;11.556;2023-04-08T01:28:18;8.68;;;4.78;;
57605;SDS011;43430;48.204;11.556;2023-04-08T01:30:45;10.95;;;4.28;;
57605;SDS011;43430;48.204;11.556;2023-04-08T01:33:16;10.57;;;4.60;;
57605;SDS011;43430;48.204;11.556;2023-04-08T01:35:46;8.57;;;4.38;;
57605;SDS011;43430;48.204;11.556;2023-04-08T01:38:17;9.27;;;4.78;;
57605;SDS011;43430;48.204;11.556;2023-04-08T01:40:43;7.22;;;4.18;;
57605;SDS011;43430;48.204;11.556;2023-04-08T01:43:13;10.40;;;4.10;;
57605;SDS011;43430;48.204;11.556;2023-04-08T01:45:42;12.40;;;4.68;;
57605;SDS011;43430;48.204;11.556;2023-04-08T01:48:09;8.75;;;4.20;;
57605;SDS011;43430;48.204;11.556;2023-04-08T01:50:37;9.18;;;4.35;;
57605;SDS011;43430;48.204;11.556;2023-04-08T01:53:03;7.93;;;4.35;;
57605;SDS011;43430;48.204;11.556;2023-04-08T01:55:33;10.10;;;4.88;;
57605;SDS011;43430;48.204;11.556;2023-04-08T01:57:59;9.20;;;4.40;;
57605;SDS011;43430;48.204;11.556;2023-04-08T02:00:26;9.32;;;5.00;;
57605;SDS011;43430;48.204;11.556;2023-04-08T02:02:54;10.45;;;4.63;;
57605;SDS011;43430;48.204;11.556;2023-04-08T02:05:19;10.60;;;4.70;;
57605;SDS011;43430;48.204;11.556;2023-04-08T02:07:46;9.30;;;4.22;;
57605;SDS011;43430;48.204;11.556;2023-04-08T02:10:12;8.35;;;4.30;;
57605;SDS011;43430;48.204;11.556;2023-04-08T02:12:38;11.82;;;5.00;;
57605;SDS011;43430;48.204;11.556;2023-04-08T02:15:03;9.23;;;4.47;;
57605;SDS011;43430;48.204;11.556;2023-04-08T02:17:35;8.85;;;4.13;;
57605;SDS011;43430;48.204;11.556;2023-04-08T02:25:36;6.82;;;3.90;;
57605;SDS011;43430;48.204;11.556;2023-04-08T02:28:05;9.85;;;4.65;;
57605;SDS011;43430;48.204;11.556;2023-04-08T02:30:34;9.13;;;4.63;;
57605;SDS011;43430;48.204;11.556;2023-04-08T02:33:02;9.32;;;4.63;;
57605;SDS011;43430;48.204;11.556;2023-04-08T02:35:29;8.90;;;4.95;;
57605;SDS011;43430;48.204;11.556;2023-04-08T02:37:56;10.38;;;5.25;;
57605;SDS011;43430;48.204;11.556;2023-04-08T02:40:25;9.65;;;5.28;;
57605;SDS011;43430;48.204;11.556;2023-04-08T02:42:53;9.85;;;5.00;;
57605;SDS011;43430;48.204;11.556;2023-04-08T02:45:19;9.10;;;5.10;;
57605;SDS011;43430;48.204;11.556;2023-04-08T02:47:44;9.73;;;5.28;;
57605;SDS011;43430;48.204;11.556;2023-04-08T02:50:10;11.23;;;5.65;;
57605;SDS011;43430;48.204;11.556;2023-04-08T02:52:35;11.13;;;4.95;;
57605;SDS011;43430;48.204;11.556;2023-04-08T02:55:01;11.10;;;5.60;;
57605;SDS011;43430;48.204;11.556;2023-04-08T02:57:26;14.60;;;6.43;;
57605;SDS011;43430;48.204;11.556;2023-04-08T02:59:51;12.02;;;5.07;;
57605;SDS011;43430;48.204;11.556;2023-04-08T03:02:17;11.45;;;5.78;;
57605;SDS011;43430;48.204;11.556;2023-04-08T03:04:42;10.88;;;5.70;;
57605;SDS011;43430;48.204;11.556;2023-04-08T03:07:07;11.82;;;5.60;;
57605;SDS011;43430;48.204;11.556;2023-04-08T03:09:33;11.23;;;5.32;;
57605;SDS011;43430;48.204;11.556;2023-04-08T03:11:58;15.85;;;7.00;;
57605;SDS011;43430;48.204;11.556;2023-04-08T03:14:24;10.90;;;5.50;;
57605;SDS011;43430;48.204;11.556;2023-04-08T03:16:49;10.30;;;5.32;;
57605;SDS011;43430;48.204;11.556;2023-04-08T03:19:15;13.48;;;6.13;;
57605;SDS011;43430;48.204;11.556;2023-04-08T03:21:40;12.52;;;6.82;;
57605;SDS011;43430;48.204;11.556;2023-04-08T03:24:05;13.60;;;6.32;;
57605;SDS011;43430;48.204;11.556;2023-04-08T03:26:31;11.07;;;6.20;;
57605;SDS011;43430;48.204;11.556;2023-04-08T03:28:56;13.40;;;6.05;;
57605;SDS011;43430;48.204;11.556;2023-04-08T03:31:22;11.00;;;5.75;;
57605;SDS011;43430;48.204;11.556;2023-04-08T03:33:47;11.82;;;6.32;;
57605;SDS011;43430;48.204;11.556;2023-04-08T03:36:12;13.32;;;6.65;;
57605;SDS011;43430;48.204;11.556;2023-04-08T03:38:38;14.68;;;5.80;;
57605;SDS011;43430;48.204;11.556;2023-04-08T03:41:03;14.77;;;7.63;;
57605;SDS011;43430;48.204;11.556;2023-04-08T03:43:28;11.95;;;6.03;;
57605;SDS011;43430;48.204;11.556;2023-04-08T03:45:54;13.68;;;5.97;;
57605;SDS011;43430;48.204;11.556;2023-04-08T03:48:20;12.20;;;6.55;;
57605;SDS011;43430;48.204;11.556;2023-04-08T03:50:46;13.73;;;6.68;;
57605;SDS011;43430;48.204;11.556;2023-04-08T03:53:11;12.20;;;7.07;;
57605;SDS011;43430;48.204;11.556;2023-04-08T03:55:37;16.77;;;7.00;;
57605;SDS011;43430;48.204;11.556;2023-04-08T03:58:03;17.48;;;7.10;;
57605;SDS011;43430;48.204;11.556;2023-04-08T04:00:28;13.15;;;7.43;;
57605;SDS011;43430;48.204;11.556;2023-04-08T04:02:53;13.77;;;7.00;;
57605;SDS011;43430;48.204;11.556;2023-04-08T04:05:20;13.02;;;6.57;;
57605;SDS011;43430;48.204;11.556;2023-04-08T04:07:45;12.48;;;6.80;;
57605;SDS011;43430;48.204;11.556;2023-04-08T04:10:11;12.52;;;7.18;;
57605;SDS011;43430;48.204;11.556;2023-04-08T04:12:36;14.07;;;7.10;;
57605;SDS011;43430;48.204;11.556;2023-04-08T04:15:02;16.13;;;7.82;;
57605;SDS011;43430;48.204;11.556;2023-04-08T04:17:27;13.38;;;8.05;;
57605;SDS011;43430;48.204;11.556;2023-04-08T04:19:53;14.38;;;7.75;;
57605;SDS011;43430;48.204;11.556;2023-04-08T04:22:18;15.15;;;8.32;;
57605;SDS011;43430;48.204;11.556;2023-04-08T04:24:47;14.75;;;8.02;;
57605;SDS011;43430;48.204;11.556;2023-04-08T04:27:13;14.68;;;8.02;;
57605;SDS011;43430;48.204;11.556;2023-04-08T04:29:38;15.77;;;8.23;;
57605;SDS011;43430;48.204;11.556;2023-04-08T04:32:04;14.88;;;8.55;;
57605;SDS011;43430;48.204;11.556;2023-04-08T04:34:30;13.27;;;7.60;;
57605;SDS011;43430;48.204;11.556;2023-04-08T04:36:56;17.73;;;8.90;;
57605;SDS011;43430;48.204;11.556;2023-04-08T04:39:21;17.67;;;8.68;;
57605;SDS011;43430;48.204;11.556;2023-04-08T04:41:47;18.35;;;8.60;;
57605;SDS011;43430;48.204;11.556;2023-04-08T04:44:13;16.65;;;8.68;;
57605;SDS011;43430;48.204;11.556;2023-04-08T04:46:38;14.15;;;8.30;;
57605;SDS011;43430;48.204;11.556;2023-04-08T04:49:04;16.45;;;8.45;;
57605;SDS011;43430;48.204;11.556;2023-04-08T04:51:30;18.08;;;9.02;;
57605;SDS011;43430;48.204;11.556;2023-04-08T04:53:57;18.65;;;8.98;;
57605;SDS011;43430;48.204;11.556;2023-04-08T04:56:22;17.30;;;8.50;;
57605;SDS011;43430;48.204;11.556;2023-04-08T04:58:47;18.05;;;9.90;;
57605;SDS011;43430;48.204;11.556;2023-04-08T05:01:13;16.85;;;9.40;;
57605;SDS011;43430;48.204;11.556;2023-04-08T05:03:38;18.02;;;9.20;;
57605;SDS011;43430;48.204;11.556;2023-04-08T05:06:03;18.42;;;9.77;;
57605;SDS011;43430;48.204;11.556;2023-04-08T05:08:29;19.55;;;9.35;;
57605;SDS011;43430;48.204;11.556;2023-04-08T05:10:55;17.95;;;9.75;;
57605;SDS011;43430;48.204;11.556;2023-04-08T05:13:20;22.33;;;9.13;;
57605;SDS011;43430;48.204;11.556;2023-04-08T05:15:46;17.33;;;9.60;;
57605;SDS011;43430;48.204;11.556;2023-04-08T05:18:11;19.05;;;9.60;;
57605;SDS011;43430;48.204;11.556;2023-04-08T05:20:37;17.35;;;9.65;;
57605;SDS011;43430;48.204;11.556;2023-04-08T05:23:02;17.67;;;9.20;;
57605;SDS011;43430;48.204;11.556;2023-04-08T05:25:28;19.98;;;10.18;;
57605;SDS011;43430;48.204;11.556;2023-04-08T05:27:54;20.05;;;11.05;;
57605;SDS011;43430;48.204;11.556;2023-04-08T05:30:20;17.73;;;9.65;;
57605;SDS011;43430;48.204;11.556;2023-04-08T05:32:46;19.15;;;10.27;;
57605;SDS011;43430;48.204;11.556;2023-04-08T05:35:11;21.05;;;9.95;;
57605;SDS011;43430;48.204;11.556;2023-04-08T05:37:36;21.80;;;10.65;;
57605;SDS011;43430;48.204;11.556;2023-04-08T05:40:02;20.45;;;10.85;;
57605;SDS011;43430;48.204;11.556;2023-04-08T05:42:27;21.65;;;10.75;;
57605;SDS011;43430;48.204;11.556;2023-04-08T05:44:53;20.60;;;10.98;;
57605;SDS011;43430;48.204;11.556;2023-04-08T05:47:18;22.73;;;11.35;;
57605;SDS011;43430;48.204;11.556;2023-04-08T05:49:43;20.63;;;10.68;;
57605;SDS011;43430;48.204;11.556;2023-04-08T05:52:09;21.60;;;10.95;;
57605;SDS011;43430;48.204;11.556;2023-04-08T05:54:34;24.27;;;11.88;;
57605;SDS011;43430;48.204;11.556;2023-04-08T05:56:59;22.73;;;11.43;;
57605;SDS011;43430;48.204;11.556;2023-04-08T05:59:25;18.20;;;10.50;;
57605;SDS011;43430;48.204;11.556;2023-04-08T06:01:50;20.45;;;11.40;;
57605;SDS011;43430;48.204;11.556;2023-04-08T06:04:15;21.65;;;11.00;;
57605;SDS011;43430;48.204;11.556;2023-04-08T06:06:41;20.67;;;11.40;;
57605;SDS011;43430;48.204;11.556;2023-04-08T06:09:07;21.05;;;11.98;;
57605;SDS011;43430;48.204;11.556;2023-04-08T06:11:34;21.02;;;10.55;;
57605;SDS011;43430;48.204;11.556;2023-04-08T06:13:59;19.48;;;10.90;;
57605;SDS011;43430;48.204;11.556;2023-04-08T06:16:25;19.65;;;10.07;;
57605;SDS011;43430;48.204;11.556;2023-04-08T06:18:50;22.75;;;10.90;;
57605;SDS011;43430;48.204;11.556;2023-04-08T06:21:16;19.08;;;10.90;;
57605;SDS011;43430;48.204;11.556;2023-04-08T06:23:41;21.33;;;10.80;;
57605;SDS011;43430;48.204;11.556;2023-04-08T06:26:07;21.13;;;10.98;;
57605;SDS011;43430;48.204;11.556;2023-04-08T06:28:32;19.70;;;10.95;;
57605;SDS011;43430;48.204;11.556;2023-04-08T06:30:58;26.27;;;11.07;;
57605;SDS011;43430;48.204;11.556;2023-04-08T06:33:23;21.20;;;11.68;;
57605;SDS011;43430;48.204;11.556;2023-04-08T06:35:49;23.30;;;11.38;;
57605;SDS011;43430;48.204;11.556;2023-04-08T06:38:14;20.17;;;11.07;;
57605;SDS011;43430;48.204;11.556;2023-04-08T06:40:41;19.77;;;11.02;;
57605;SDS011;43430;48.204;11.556;2023-04-08T06:43:06;22.58;;;10.30;;
57605;SDS011;43430;48.204;11.556;2023-04-08T06:45:32;24.33;;;12.30;;
57605;SDS011;43430;48.204;11.556;2023-04-08T06:47:58;24.02;;;11.48;;
57605;SDS011;43430;48.204;11.556;2023-04-08T06:50:23;20.85;;;11.40;;
57605;SDS011;43430;48.204;11.556;2023-04-08T06:52:49;24.48;;;11.35;;
57605;SDS011;43430;48.204;11.556;2023-04-08T06:55:14;20.90;;;11.05;;
57605;SDS011;43430;48.204;11.556;2023-04-08T06:57:40;21.40;;;11.80;;
57605;SDS011;43430;48.204;11.556;2023-04-08T07:00:06;22.15;;;10.43;;
57605;SDS011;43430;48.204;11.556;2023-04-08T07:02:31;26.77;;;12.27;;
57605;SDS011;43430;48.204;11.556;2023-04-08T07:04:57;21.05;;;11.88;;
57605;SDS011;43430;48.204;11.556;2023-04-08T07:07:22;21.67;;;11.55;;
57605;SDS011;43430;48.204;11.556;2023-04-08T07:09:48;22.00;;;12.13;;
57605;SDS011;43430;48.204;11.556;2023-04-08T07:12:14;22.13;;;11.93;;
57605;SDS011;43430;48.204;11.556;2023-04-08T07:14:40;23.88;;;11.68;;
57605;SDS011;43430;48.204;11.556;2023-04-08T07:17:05;35.58;;;14.18;;
57605;SDS011;43430;48.204;11.556;2023-04-08T07:19:31;21.55;;;11.40;;
57605;SDS011;43430;48.204;11.556;2023-04-08T07:21:56;18.45;;;11.10;;
57605;SDS011;43430;48.204;11.556;2023-04-08T07:24:22;21.08;;;11.10;;
57605;SDS011;43430;48.204;11.556;2023-04-08T07:26:47;19.30;;;10.85;;
57605;SDS011;43430;48.204;11.556;2023-04-08T07:29:13;21.42;;;11.23;;
57605;SDS011;43430;48.204;11.556;2023-04-08T07:31:41;18.33;;;10.52;;
57605;SDS011;43430;48.204;11.556;2023-04-08T07:34:07;19.77;;;11.15;;
57605;SDS011;43430;48.204;11.556;2023-04-08T07:36:33;20.42;;;10.50;;
57605;SDS011;43430;48.204;11.556;2023-04-08T07:38:58;21.73;;;10.82;;
57605;SDS011;43430;48.204;11.556;2023-04-08T07:41:23;16.25;;;9.43;;
57605;SDS011;43430;48.204;11.556;2023-04-08T07:43:49;19.95;;;9.90;;
57605;SDS011;43430;48.204;11.556;2023-04-08T07:46:14;22.55;;;11.73;;
57605;SDS011;43430;48.204;11.556;2023-04-08T07:48:40;17.98;;;9.93;;
57605;SDS011;43430;48.204;11.556;2023-04-08T07:51:06;19.77;;;10.63;;
57605;SDS011;43430;48.204;11.556;2023-04-08T07:53:33;18.20;;;9.93;;
57605;SDS011;43430;48.204;11.556;2023-04-08T07:55:59;20.25;;;11.25;;
57605;SDS011;43430;48.204;11.556;2023-04-08T07:58:25;14.50;;;9.07;;
57605;SDS011;43430;48.204;11.556;2023-04-08T08:00:50;24.55;;;10.32;;
57605;SDS011;43430;48.204;11.556;2023-04-08T08:03:16;20.70;;;12.25;;
57605;SDS011;43430;48.204;11.556;2023-04-08T08:05:42;15.63;;;8.32;;
57605;SDS011;43430;48.204;11.556;2023-04-08T08:08:07;16.65;;;9.50;;
57605;SDS011;43430;48.204;11.556;2023-04-08T08:10:35;18.63;;;10.27;;
57605;SDS011;43430;48.204;11.556;2023-04-08T08:13:04;19.88;;;9.82;;
57605;SDS011;43430;48.204;11.556;2023-04-08T08:15:30;15.43;;;8.73;;
57605;SDS011;43430;48.204;11.556;2023-04-08T08:17:56;12.85;;;8.45;;
57605;SDS011;43430;48.204;11.556;2023-04-08T08:20:21;28.95;;;9.40;;
57605;SDS011;43430;48.204;11.556;2023-04-08T08:22:46;15.60;;;8.60;;
57605;SDS011;43430;48.204;11.556;2023-04-08T08:25:12;16.60;;;8.75;;
57605;SDS011;43430;48.204;11.556;2023-04-08T08:27:37;17.73;;;8.30;;
57605;SDS011;43430;48.204;11.556;2023-04-08T08:30:05;19.52;;;9.50;;
57605;SDS011;43430;48.204;11.556;2023-04-08T08:32:31;16.85;;;8.95;;
57605;SDS011;43430;48.204;11.556;2023-04-08T08:34:56;14.77;;;8.15;;
57605;SDS011;43430;48.204;11.556;2023-04-08T08:37:22;19.25;;;10.40;;
57605;SDS011;43430;48.204;11.556;2023-04-08T08:39:50;15.77;;;8.40;;
57605;SDS011;43430;48.204;11.556;2023-04-08T08:42:19;19.00;;;9.10;;
57605;SDS011;43430;48.204;11.556;2023-04-08T08:44:46;17.88;;;9.73;;
57605;SDS011;43430;48.204;11.556;2023-04-08T08:47:11;16.17;;;8.48;;
57605;SDS011;43430;48.204;11.556;2023-04-08T08:49:37;14.90;;;8.25;;
57605;SDS011;43430;48.204;11.556;2023-04-08T08:52:02;16.58;;;8.48;;
57605;SDS011;43430;48.204;11.556;2023-04-08T08:54:28;17.17;;;7.93;;
57605;SDS011;43430;48.204;11.556;2023-04-08T08:56:53;13.57;;;6.90;;
57605;SDS011;43430;48.204;11.556;2023-04-08T08:59:18;15.15;;;7.38;;
57605;SDS011;43430;48.204;11.556;2023-04-08T09:01:44;12.93;;;6.72;;
57605;SDS011;43430;48.204;11.556;2023-04-08T09:04:16;13.90;;;6.88;;
57605;SDS011;43430;48.204;11.556;2023-04-08T09:06:44;14.65;;;7.28;;
57605;SDS011;43430;48.204;11.556;2023-04-08T09:09:11;14.85;;;7.60;;
57605;SDS011;43430;48.204;11.556;2023-04-08T09:11:38;15.32;;;7.75;;
57605;SDS011;43430;48.204;11.556;2023-04-08T09:14:15;14.05;;;7.68;;
57605;SDS011;43430;48.204;11.556;2023-04-08T09:16:44;14.75;;;7.82;;
57605;SDS011;43430;48.204;11.556;2023-04-08T09:19:10;14.75;;;7.93;;
57605;SDS011;43430;48.204;11.556;2023-04-08T09:21:36;14.48;;;7.45;;
57605;SDS011;43430;48.204;11.556;2023-04-08T09:24:03;16.48;;;9.13;;
57605;SDS011;43430;48.204;11.556;2023-04-08T09:26:28;16.33;;;7.45;;
57605;SDS011;43430;48.204;11.556;2023-04-08T09:29:02;14.05;;;8.43;;
57605;SDS011;43430;48.204;11.556;2023-04-08T09:31:29;16.58;;;7.95;;
57605;SDS011;43430;48.204;11.556;2023-04-08T09:33:57;14.07;;;7.65;;
57605;SDS011;43430;48.204;11.556;2023-04-08T09:36:23;15.23;;;8.23;;
57605;SDS011;43430;48.204;11.556;2023-04-08T09:38:53;14.07;;;8.27;;
57605;SDS011;43430;48.204;11.556;2023-04-08T09:41:19;14.10;;;7.85;;
57605;SDS011;43430;48.204;11.556;2023-04-08T09:46:28;16.90;;;8.63;;
57605;SDS011;43430;48.204;11.556;2023-04-08T09:49:12;16.00;;;9.38;;
57605;SDS011;43430;48.204;11.556;2023-04-08T09:52:07;18.83;;;10.23;;
57605;SDS011;43430;48.204;11.556;2023-04-08T09:54:54;18.00;;;9.07;;
57605;SDS011;43430;48.204;11.556;2023-04-08T09:57:45;17.98;;;9.77;;
57605;SDS011;43430;48.204;11.556;2023-04-08T10:00:21;23.02;;;12.80;;
57605;SDS011;43430;48.204;11.556;2023-04-08T10:02:59;17.08;;;10.13;;
57605;SDS011;43430;48.204;11.556;2023-04-08T10:05:37;18.85;;;10.65;;
57605;SDS011;43430;48.204;11.556;2023-04-08T10:08:05;17.85;;;9.80;;
57605;SDS011;43430;48.204;11.556;2023-04-08T10:10:33;17.38;;;9.98;;
57605;SDS011;43430;48.204;11.556;2023-04-08T10:13:01;17.65;;;10.80;;
57605;SDS011;43430;48.204;11.556;2023-04-08T10:15:28;15.40;;;9.43;;
57605;SDS011;43430;48.204;11.556;2023-04-08T10:22:58;17.42;;;10.60;;
57605;SDS011;43430;48.204;11.556;2023-04-08T10:25:27;18.30;;;10.80;;
57605;SDS011;43430;48.204;11.556;2023-04-08T10:27:57;14.98;;;8.52;;
57605;SDS011;43430;48.204;11.556;2023-04-08T10:32:54;18.15;;;11.32;;
57605;SDS011;43430;48.204;11.556;2023-04-08T10:35:37;19.40;;;10.38;;
57605;SDS011;43430;48.204;11.556;2023-04-08T10:38:06;15.23;;;10.07;;
57605;SDS011;43430;48.204;11.556;2023-04-08T10:40:35;18.70;;;9.82;;
57605;SDS011;43430;48.204;11.556;2023-04-08T10:43:05;17.58;;;9.23;;
57605;SDS011;43430;48.204;11.556;2023-04-08T10:45:31;17.92;;;10.90;;
57605;SDS011;43430;48.204;11.556;2023-04-08T10:48:09;20.77;;;11.73;;
57605;SDS011;43430;48.204;11.556;2023-04-08T10:50:36;20.90;;;10.43;;
57605;SDS011;43430;48.204;11.556;2023-04-08T10:53:01;17.77;;;10.13;;
57605;SDS011;43430;48.204;11.556;2023-04-08T10:55:27;17.98;;;10.50;;
57605;SDS011;43430;48.204;11.556;2023-04-08T10:57:53;20.00;;;10.90;;
57605;SDS011;43430;48.204;11.556;2023-04-08T11:00:19;19.48;;;11.73;;
57605;SDS011;43430;48.204;11.556;2023-04-08T11:03:01;18.83;;;10.15;;
57605;SDS011;43430;48.204;11.556;2023-04-08T11:05:28;18.88;;;11.20;;
57605;SDS011;43430;48.204;11.556;2023-04-08T11:07:53;19.48;;;10.48;;
57605;SDS011;43430;48.204;11.556;2023-04-08T11:10:19;18.10;;;10.73;;
57605;SDS011;43430;48.204;11.556;2023-04-08T11:12:45;18.05;;;10.90;;
57605;SDS011;43430;48.204;11.556;2023-04-08T11:15:11;16.88;;;10.35;;
57605;SDS011;43430;48.204;11.556;2023-04-08T11:17:37;19.50;;;12.13;;
57605;SDS011;43430;48.204;11.556;2023-04-08T11:20:03;19.98;;;10.82;;
57605;SDS011;43430;48.204;11.556;2023-04-08T11:22:30;19.17;;;11.90;;
57605;SDS011;43430;48.204;11.556;2023-04-08T11:24:57;17.35;;;9.77;;
57605;SDS011;43430;48.204;11.556;2023-04-08T11:27:23;19.20;;;11.43;;
57605;SDS011;43430;48.204;11.556;2023-04-08T11:29:50;22.30;;;11.80;;
57605;SDS011;43430;48.204;11.556;2023-04-08T11:32:19;20.02;;;10.88;;
57605;SDS011;43430;48.204;11.556;2023-04-08T11:34:45;20.98;;;11.60;;
57605;SDS011;43430;48.204;11.556;2023-04-08T11:37:11;26.38;;;13.60;;
57605;SDS011;43430;48.204;11.556;2023-04-08T11:39:43;22.92;;;13.30;;
57605;SDS011;43430;48.204;11.556;2023-04-08T11:42:29;21.08;;;11.57;;
57605;SDS011;43430;48.204;11.556;2023-04-08T11:44:55;20.83;;;10.85;;
57605;SDS011;43430;48.204;11.556;2023-04-08T11:47:21;13.23;;;8.57;;
57605;SDS011;43430;48.204;11.556;2023-04-08T11:49:46;14.52;;;8.40;;
57605;SDS011;43430;48.204;11.556;2023-04-08T11:52:13;15.13;;;9.40;;
57605;SDS011;43430;48.204;11.556;2023-04-08T11:54:42;16.33;;;9.23;;
57605;SDS011;43430;48.204;11.556;2023-04-08T11:57:08;14.43;;;8.40;;
57605;SDS011;43430;48.204;11.556;2023-04-08T11:59:37;14.45;;;8.25;;
57605;SDS011;43430;48.204;11.556;2023-04-08T12:02:02;14.38;;;8.43;;
57605;SDS011;43430;48.204;11.556;2023-04-08T12:04:28;14.35;;;8.23;;
57605;SDS011;43430;48.204;11.556;2023-04-08T12:06:54;13.88;;;8.75;;
57605;SDS011;43430;48.204;11.556;2023-04-08T12:09:20;16.02;;;9.45;;
57605;SDS011;43430;48.204;11.556;2023-04-08T12:11:46;18.13;;;9.00;;
57605;SDS011;43430;48.204;11.556;2023-04-08T12:14:12;15.07;;;8.65;;
57605;SDS011;43430;48.204;11.556;2023-04-08T12:16:38;18.95;;;9.98;;
57605;SDS011;43430;48.204;11.556;2023-04-08T12:19:03;16.85;;;8.88;;
57605;SDS011;43430;48.204;11.556;2023-04-08T12:21:28;15.32;;;8.90;;
57605;SDS011;43430;48.204;11.556;2023-04-08T12:23:57;18.45;;;9.52;;
57605;SDS011;43430;48.204;11.556;2023-04-08T12:26:22;14.77;;;9.15;;
57605;SDS011;43430;48.204;11.556;2023-04-08T12:28:48;16.85;;;9.68;;
57605;SDS011;43430;48.204;11.556;2023-04-08T12:31:14;16.38;;;9.68;;
57605;SDS011;43430;48.204;11.556;2023-04-08T12:33:42;17.95;;;10.00;;
57605;SDS011;43430;48.204;11.556;2023-04-08T12:36:08;16.08;;;9.25;;
57605;SDS011;43430;48.204;11.556;2023-04-08T12:38:34;16.95;;;8.88;;
57605;SDS011;43430;48.204;11.556;2023-04-08T12:41:02;14.85;;;8.50;;
57605;SDS011;43430;48.204;11.556;2023-04-08T12:43:28;13.30;;;7.95;;
57605;SDS011;43430;48.204;11.556;2023-04-08T12:45:58;15.10;;;8.35;;
57605;SDS011;43430;48.204;11.556;2023-04-08T12:48:24;14.18;;;8.00;;
57605;SDS011;43430;48.204;11.556;2023-04-08T12:50:49;16.30;;;7.88;;
57605;SDS011;43430;48.204;11.556;2023-04-08T12:53:17;13.52;;;7.65;;
57605;SDS011;43430;48.204;11.556;2023-04-08T12:55:43;13.02;;;6.80;;
57605;SDS011;43430;48.204;11.556;2023-04-08T12:58:11;13.07;;;7.18;;
57605;SDS011;43430;48.204;11.556;2023-04-08T13:00:46;14.38;;;7.75;;
57605;SDS011;43430;48.204;11.556;2023-04-08T13:03:11;13.30;;;6.50;;
57605;SDS011;43430;48.204;11.556;2023-04-08T13:05:40;14.02;;;7.28;;
57605;SDS011;43430;48.204;11.556;2023-04-08T13:08:06;13.65;;;7.25;;
57605;SDS011;43430;48.204;11.556;2023-04-08T13:10:38;13.75;;;7.55;;
57605;SDS011;43430;48.204;11.556;2023-04-08T13:13:03;11.52;;;7.40;;
57605;SDS011;43430;48.204;11.556;2023-04-08T13:15:32;14.68;;;8.07;;
57605;SDS011;43430;48.204;11.556;2023-04-08T13:18:00;13.98;;;7.85;;
57605;SDS011;43430;48.204;11.556;2023-04-08T13:20:25;14.40;;;7.55;;
57605;SDS011;43430;48.204;11.556;2023-04-08T13:22:54;15.00;;;7.90;;
57605;SDS011;43430;48.204;11.556;2023-04-08T13:25:19;14.30;;;7.50;;
57605;SDS011;43430;48.204;11.556;2023-04-08T13:27:45;13.57;;;7.38;;
57605;SDS011;43430;48.204;11.556;2023-04-08T13:30:11;14.80;;;9.38;;
57605;SDS011;43430;48.204;11.556;2023-04-08T13:32:37;17.17;;;9.02;;
57605;SDS011;43430;48.204;11.556;2023-04-08T13:35:03;12.05;;;6.88;;
57605;SDS011;43430;48.204;11.556;2023-04-08T13:37:29;15.70;;;7.57;;
57605;SDS011;43430;48.204;11.556;2023-04-08T13:39:54;11.70;;;7.32;;
57605;SDS011;43430;48.204;11.556;2023-04-08T13:42:20;11.88;;;7.03;;
57605;SDS011;43430;48.204;11.556;2023-04-08T13:44:46;12.88;;;7.50;;
57605;SDS011;43430;48.204;11.556;2023-04-08T13:47:11;12.48;;;7.45;;
57605;SDS011;43430;48.204;11.556;2023-04-08T13:49:37;12.00;;;7.00;;
57605;SDS011;43430;48.204;11.556;2023-04-08T13:52:02;14.07;;;7.22;;
57605;SDS011;43430;48.204;11.556;2023-04-08T13:54:28;13.88;;;7.43;;
57605;SDS011;43430;48.204;11.556;2023-04-08T13:56:53;13.70;;;7.80;;
57605;SDS011;43430;48.204;11.556;2023-04-08T13:59:57;15.10;;;8.75;;
57605;SDS011;43430;48.204;11.556;2023-04-08T14:02:22;13.20;;;7.50;;
57605;SDS011;43430;48.204;11.556;2023-04-08T14:04:48;11.32;;;6.28;;
57605;SDS011;43430;48.204;11.556;2023-04-08T14:07:13;13.63;;;7.10;;
57605;SDS011;43430;48.204;11.556;2023-04-08T14:09:39;12.13;;;6.88;;
57605;SDS011;43430;48.204;11.556;2023-04-08T14:12:05;15.45;;;8.65;;
57605;SDS011;43430;48.204;11.556;2023-04-08T14:14:30;12.10;;;6.93;;
57605;SDS011;43430;48.204;11.556;2023-04-08T14:16:56;10.93;;;6.03;;
57605;SDS011;43430;48.204;11.556;2023-04-08T14:19:21;12.30;;;6.82;;
57605;SDS011;43430;48.204;11.556;2023-04-08T14:21:47;15.52;;;7.65;;
57605;SDS011;43430;48.204;11.556;2023-04-08T14:24:13;12.95;;;6.32;;
57605;SDS011;43430;48.204;11.556;2023-04-08T14:26:39;13.18;;;6.78;;
57605;SDS011;43430;48.204;11.556;2023-04-08T14:29:05;11.35;;;6.88;;
57605;SDS011;43430;48.204;11.556;2023-04-08T14:31:38;12.50;;;6.93;;
57605;SDS011;43430;48.204;11.556;2023-04-08T14:34:06;12.05;;;6.95;;
57605;SDS011;43430;48.204;11.556;2023-04-08T14:36:31;12.80;;;7.35;;
57605;SDS011;43430;48.204;11.556;2023-04-08T14:38:57;13.85;;;7.00;;